Time,TemperatureF,DewpointF,PressureIn,WindDirection,WindDirectionDegrees,WindSpeedMPH,WindSpeedGustMPH,Humidity,HourlyPrecipIn,Conditions,Clouds,dailyrainin,SoftwareType,DateUTC
2013-07-07 04:00:00,68.0,-99.9,29.88,ENE,60,8.0,-999.0,-999,-99.99,,,-99.99,,2013-07-07 04:00:00,
2013-07-07 04:31:00,68.0,-99.9,29.88,ENE,60,8.0,-999.0,-999,-99.99,,,-99.99,,2013-07-07 04:31:00,
2013-07-07 04:42:00,68.0,-99.9,29.88,ENE,60,8.0,-999.0,-999,-99.99,,,-99.99,,2013-07-07 04:42:00,
2013-07-07 04:52:00,68.0,-99.9,29.88,ENE,60,8.0,-999.0,-999,-99.99,,,-99.99,,2013-07-07 04:52:00,
2013-07-07 05:00:00,63.0,-99.9,29.89,NE,50,13.0,-999.0,-999,-99.99,,,-99.99,,2013-07-07 05:00:00,
2013-07-07 05:32:00,63.0,-99.9,29.89,NE,50,13.0,-999.0,-999,-99.99,,,-99.99,,2013-07-07 05:32:00,
2013-07-07 05:41:00,63.0,-99.9,29.89,NE,50,13.0,-999.0,-999,-99.99,,,-99.99,,2013-07-07 05:41:00,
2013-07-07 05:51:00,63.0,-99.9,29.89,NE,50,13.0,-999.0,-999,-99.99,,,-99.99,,2013-07-07 05:51:00,
2013-07-07 07:00:00,61.0,-99.9,29.86,NE,40,17.0,-999.0,-999,-99.99,,,-99.99,,2013-07-07 07:00:00,
2013-07-07 07:44:00,61.0,-99.9,29.86,NE,40,17.0,-999.0,-999,-99.99,,,-99.99,,2013-07-07 07:44:00,
2013-07-07 07:53:00,61.0,-99.9,29.86,NE,40,17.0,-999.0,-999,-99.99,,,-99.99,,2013-07-07 07:53:00,
2013-07-07 08:00:00,59.0,-99.9,29.86,NE,40,13.0,-999.0,-999,-99.99,,,-99.99,,2013-07-07 08:00:00,
2013-07-07 08:34:00,59.0,-99.9,29.86,NE,40,13.0,-999.0,-999,-99.99,,,-99.99,,2013-07-07 08:34:00,
2013-07-07 08:44:00,59.0,-99.9,29.86,NE,40,13.0,-999.0,-999,-99.99,,,-99.99,,2013-07-07 08:44:00,
2013-07-07 08:53:00,59.0,-99.9,29.86,NE,40,13.0,-999.0,-999,-99.99,,,-99.99,,2013-07-07 08:53:00,
2013-07-07 12:00:00,54.0,-99.9,29.88,NE,40,14.0,-999.0,-999,-99.99,,,-99.99,,2013-07-07 12:00:00,
2013-07-07 12:34:00,54.0,-99.9,29.88,NE,40,14.0,-999.0,-999,-99.99,,,-99.99,,2013-07-07 12:34:00,
2013-07-07 12:43:00,54.0,-99.9,29.88,NE,40,14.0,-999.0,-999,-99.99,,,-99.99,,2013-07-07 12:43:00,
2013-07-07 12:52:00,54.0,-99.9,29.88,NE,40,14.0,-999.0,-999,-99.99,,,-99.99,,2013-07-07 12:52:00,
2013-07-07 14:34:00,43.0,-99.9,29.92,NNE,30,9.0,-999.0,-999,-99.99,,,-99.99,,2013-07-07 14:34:00,
2013-07-07 19:00:00,42.0,-99.9,29.95,NE,40,16.0,-999.0,-999,-99.99,,,-99.99,,2013-07-07 19:00:00,
2013-07-07 19:43:00,42.0,-99.9,29.95,NE,40,16.0,-999.0,-999,-99.99,,,-99.99,,2013-07-07 19:43:00,
2013-07-07 19:54:00,42.0,-99.9,29.95,NE,40,16.0,-999.0,-999,-99.99,,,-99.99,,2013-07-07 19:54:00,
2013-07-07 20:00:00,43.0,-99.9,29.97,NE,40,13.0,-999.0,-999,-99.99,,,-99.99,,2013-07-07 20:00:00,
2013-07-07 20:34:00,43.0,-99.9,29.97,NE,40,13.0,-999.0,-999,-99.99,,,-99.99,,2013-07-07 20:34:00,
2013-07-07 20:42:00,43.0,-99.9,29.97,NE,40,13.0,-999.0,-999,-99.99,,,-99.99,,2013-07-07 20:42:00,
2013-07-07 20:53:00,43.0,-99.9,29.97,NE,40,13.0,-999.0,-999,-99.99,,,-99.99,,2013-07-07 20:53:00,
2013-07-07 21:00:00,42.0,-99.9,29.98,NE,40,12.0,-999.0,-999,-99.99,,,-99.99,,2013-07-07 21:00:00,
2013-07-07 21:34:00,42.0,-99.9,29.98,NE,40,12.0,-999.0,-999,-99.99,,,-99.99,,2013-07-07 21:34:00,
2013-07-07 21:44:00,42.0,-99.9,29.98,NE,40,12.0,-999.0,-999,-99.99,,,-99.99,,2013-07-07 21:44:00,
2013-07-07 21:53:00,42.0,-99.9,29.98,NE,40,12.0,-999.0,-999,-99.99,,,-99.99,,2013-07-07 21:53:00,
2013-07-07 22:00:00,42.0,-99.9,29.98,NNE,20,12.0,-999.0,-999,-99.99,,,-99.99,,2013-07-07 22:00:00,
2013-07-07 22:44:00,42.0,-99.9,29.98,NNE,20,12.0,-999.0,-999,-99.99,,,-99.99,,2013-07-07 22:44:00,
2013-07-07 22:54:00,42.0,-99.9,29.98,NNE,20,12.0,-999.0,-999,-99.99,,,-99.99,,2013-07-07 22:54:00,
2013-07-07 23:00:00,46.0,-99.9,29.97,NE,40,13.0,-999.0,-999,-99.99,,,-99.99,,2013-07-07 23:00:00,
2013-07-07 23:33:00,46.0,-99.9,29.97,NE,40,13.0,-999.0,-999,-99.99,,,-99.99,,2013-07-07 23:33:00,
2013-07-07 23:43:00,46.0,-99.9,29.97,NE,40,13.0,-999.0,-999,-99.99,,,-99.99,,2013-07-07 23:43:00,
2013-07-07 23:53:00,46.0,-99.9,29.97,NE,40,13.0,-999.0,-999,-99.99,,,-99.99,,2013-07-07 23:53:00,